Kona International At Keahole, HI

11:33 AM HST on September 26, 2016 (GMT -1000)
Kona International At Keahole | | Change Station

Elev 43 ft 19.74 °N, 156.05 °W | Updated 40 minutes ago

Scattered Clouds
Scattered Clouds
86 °F
Feels Like 89 °F
N
8
Wind Variable Wind from South

Today
High -- | Low -- °F
--% Chance of Precip.
Yesterday
High -- | Low -- °F
Precip. -- in
Pressure 29.96 in
Visibility 10.0 miles
Clouds Scattered Clouds 7000 ft
Heat Index 89 °F
Dew Point 68 °F
Humidity 55%
Rainfall 0.00 in
Snow Depth Not available.
6:14 AM 6:16 PM
Waning Crescent, 16% visible
METAR PHKO 262053Z COR 19007KT 10SM SCT070 30/20 A2996 RMK AO2 SLP146 T03000200 50001 $
Pressure 29.96 in
Visibility 10.0 miles
Clouds Scattered Clouds 7000 ft
Heat Index 89 °F
Dew Point 68 °F
Humidity 55%
Rainfall 0.00 in
Snow Depth Not available.
6:14 AM 6:16 PM
Waning Crescent, 16% visible
METAR PHKO 262053Z COR 19007KT 10SM SCT070 30/20 A2996 RMK AO2 SLP146 T03000200 50001 $

10-Day Weather Forecast

Almanac

Astronomy

Sep. 26, 2016 Rise Set
Actual Time
Civil Twilight
Nautical Twilight
Astronomical Twilight
Moon
Length of Visible Light
Length of Day
Tomorrow will be .
, % of the Moon is Illuminated

Today's Extremes

State Highs State Lows

Community

WunderPhotos

Upload Photos

1,941,964 photos uploaded!

WunderBlog® & News

Nearby

Air Quality

  Air Quality AQ Index Pollutant
Not available.

Snow Depth

Station Depth Elevation

Earthquake Activity

City Distance Mag. Time & Date
Minimum magnitude displayed is 2.5.

Coastal Water Temperatures

Place Temperature

Stations

Nearby Weather Stations

Station Location Temp. Windchill Dew Point Humidity Wind Precip. Elev Updated Type
                   

Watches & Warnings

There are currently no watches in effect.